Back to Top

Language: 

My Weather Underground Personal Weather Station Historical Data with Graphs...

Delerius Weather Station Historical Data
Daily Summary for December 18, 2017 Units:  English    Metric   Both
« Previous Day
Next Day »
Daily Weekly Monthly Yearly Custom
  High: Low: Average:
Temperature: 48.7 °F 32.7 °F 39.9 °F
Dew Point: 40.6 °F 30.8 °F 36.6 °F
Humidity: 96 % 72 % 88 %
Wind Speed: 9.0 mph 0.0 mph 2.2 mph
Wind Gust: 13.0 mph - -
Wind:- - WNW
Pressure: 30.46 in 30.19 in -
Precipitation: 0.00 in    
Historical Graphs
 
 
Tabular Data for December 18, 2017
Time Temperature Dew Point Pressure Wind Wind Speed Wind Gust Humidity Rainfall Rate (Hourly) solar Conditions
00:00 39.6 °F 36.0 °F 30.19 in WNW 6.0 mph 8.0 mph 87 % 0.00 in 0 W/m2
00:01 39.6 °F 36.0 °F 30.19 in WNW 5.0 mph 8.0 mph 87 % 0.00 in 0 W/m2
00:04 39.4 °F 35.8 °F 30.20 in WNW 5.0 mph 7.0 mph 87 % 0.00 in 0 W/m2
00:08 39.4 °F 35.8 °F 30.20 in WNW 6.0 mph 9.0 mph 87 % 0.00 in 0 W/m2
00:13 39.2 °F 35.7 °F 30.19 in WNW 7.0 mph 11.0 mph 87 % 0.00 in 0 W/m2
00:15 39.2 °F 35.7 °F 30.20 in WNW 6.0 mph 9.0 mph 87 % 0.00 in 0 W/m2
00:18 39.4 °F 35.8 °F 30.20 in WNW 6.0 mph 9.0 mph 87 % 0.00 in 0 W/m2
00:21 39.4 °F 35.8 °F 30.19 in WNW 7.0 mph 10.0 mph 87 % 0.00 in 0 W/m2
00:26 39.4 °F 35.8 °F 30.19 in WNW 6.0 mph 9.0 mph 87 % 0.00 in 0 W/m2
00:29 39.4 °F 35.5 °F 30.20 in WNW 4.0 mph 7.0 mph 86 % 0.00 in 0 W/m2
00:34 39.4 °F 35.5 °F 30.20 in WNW 2.0 mph 5.0 mph 86 % 0.00 in 0 W/m2
00:36 39.4 °F 35.5 °F 30.20 in WNW 3.0 mph 5.0 mph 86 % 0.00 in 0 W/m2
00:42 39.0 °F 35.2 °F 30.20 in WNW 5.0 mph 8.0 mph 86 % 0.00 in 0 W/m2
00:47 38.8 °F 35.3 °F 30.20 in WNW 7.0 mph 10.0 mph 87 % 0.00 in 0 W/m2
00:50 39.0 °F 35.5 °F 30.20 in WNW 7.0 mph 10.0 mph 87 % 0.00 in 0 W/m2
00:55 39.0 °F 35.5 °F 30.21 in WNW 5.0 mph 11.0 mph 87 % 0.00 in 0 W/m2
00:56 39.0 °F 35.5 °F 30.21 in WNW 5.0 mph 11.0 mph 87 % 0.00 in 0 W/m2
00:57 39.0 °F 35.5 °F 30.21 in WNW 5.0 mph 11.0 mph 87 % 0.00 in 0 W/m2
01:02 39.4 °F 35.8 °F 30.21 in WNW 7.0 mph 10.0 mph 87 % 0.00 in 0 W/m2
01:03 39.4 °F 35.8 °F 30.21 in WNW 6.0 mph 10.0 mph 87 % 0.00 in 0 W/m2
01:08 39.4 °F 35.8 °F 30.22 in WNW 4.0 mph 7.0 mph 87 % 0.00 in 0 W/m2
01:11 39.4 °F 35.8 °F 30.22 in WNW 5.0 mph 8.0 mph 87 % 0.00 in 0 W/m2
01:16 39.2 °F 35.7 °F 30.22 in NW 6.0 mph 8.0 mph 87 % 0.00 in 0 W/m2
01:18 39.2 °F 35.7 °F 30.22 in NW 6.0 mph 9.0 mph 87 % 0.00 in 0 W/m2
01:19 39.2 °F 35.7 °F 30.22 in NW 6.0 mph 9.0 mph 87 % 0.00 in 0 W/m2
01:24 39.4 °F 36.1 °F 30.22 in NW 6.0 mph 10.0 mph 88 % 0.00 in 0 W/m2
01:29 39.6 °F 36.3 °F 30.23 in WNW 7.0 mph 11.0 mph 88 % 0.00 in 0 W/m2
01:30 39.6 °F 36.3 °F 30.23 in WNW 7.0 mph 11.0 mph 88 % 0.00 in 0 W/m2
01:35 39.7 °F 36.5 °F 30.22 in WNW 6.0 mph 9.0 mph 88 % 0.00 in 0 W/m2
01:40 39.7 °F 36.5 °F 30.22 in WNW 6.0 mph 9.0 mph 88 % 0.00 in 0 W/m2
01:42 39.6 °F 36.3 °F 30.22 in WNW 6.0 mph 9.0 mph 88 % 0.00 in 0 W/m2
01:47 39.6 °F 36.3 °F 30.23 in WNW 6.0 mph 9.0 mph 88 % 0.00 in 0 W/m2
01:48 39.6 °F 36.3 °F 30.22 in WNW 6.0 mph 11.0 mph 88 % 0.00 in 0 W/m2
01:51 39.6 °F 36.6 °F 30.23 in WNW 6.0 mph 10.0 mph 89 % 0.00 in 0 W/m2
01:55 39.6 °F 36.6 °F 30.23 in NW 5.0 mph 10.0 mph 89 % 0.00 in 0 W/m2
02:00 39.7 °F 37.0 °F 30.23 in WNW 9.0 mph 12.0 mph 90 % 0.00 in 0 W/m2
02:04 39.9 °F 37.2 °F 30.23 in WNW 6.0 mph 10.0 mph 90 % 0.00 in 0 W/m2
02:07 39.9 °F 37.2 °F 30.23 in WNW 6.0 mph 11.0 mph 90 % 0.00 in 0 W/m2
02:10 39.9 °F 37.2 °F 30.23 in WNW 6.0 mph 10.0 mph 90 % 0.00 in 0 W/m2
02:12 39.9 °F 37.2 °F 30.23 in WNW 5.0 mph 10.0 mph 90 % 0.00 in 0 W/m2
02:17 39.7 °F 37.0 °F 30.23 in WNW 5.0 mph 9.0 mph 90 % 0.00 in 0 W/m2
02:18 39.7 °F 37.0 °F 30.23 in WNW 6.0 mph 9.0 mph 90 % 0.00 in 0 W/m2
02:20 39.7 °F 37.0 °F 30.23 in WNW 6.0 mph 9.0 mph 90 % 0.00 in 0 W/m2
02:25 39.7 °F 37.0 °F 30.23 in NW 6.0 mph 10.0 mph 90 % 0.00 in 0 W/m2
02:30 39.7 °F 37.0 °F 30.23 in NW 7.0 mph 10.0 mph 90 % 0.00 in 0 W/m2
02:34 39.7 °F 37.3 °F 30.23 in NW 6.0 mph 9.0 mph 91 % 0.00 in 0 W/m2
02:39 39.7 °F 37.3 °F 30.23 in WNW 8.0 mph 12.0 mph 91 % 0.00 in 0 W/m2
02:44 39.7 °F 37.3 °F 30.23 in NW 6.0 mph 11.0 mph 91 % 0.00 in 0 W/m2
02:45 39.7 °F 37.3 °F 30.23 in WNW 7.0 mph 11.0 mph 91 % 0.00 in 0 W/m2
02:50 39.7 °F 37.3 °F 30.23 in NW 6.0 mph 9.0 mph 91 % 0.00 in 0 W/m2
02:51 39.7 °F 37.3 °F 30.23 in NW 6.0 mph 9.0 mph 91 % 0.00 in 0 W/m2
02:56 39.7 °F 37.3 °F 30.24 in NW 6.0 mph 10.0 mph 91 % 0.00 in 0 W/m2
02:57 39.6 °F 37.2 °F 30.24 in NW 5.0 mph 10.0 mph 91 % 0.00 in 0 W/m2
03:02 39.6 °F 37.2 °F 30.24 in NW 7.0 mph 10.0 mph 91 % 0.00 in 0 W/m2
03:07 39.6 °F 37.2 °F 30.24 in NW 6.0 mph 13.0 mph 91 % 0.00 in 0 W/m2
03:08 39.6 °F 37.2 °F 30.25 in NW 6.0 mph 13.0 mph 91 % 0.00 in 0 W/m2
03:13 39.6 °F 37.2 °F 30.25 in WNW 7.0 mph 9.0 mph 91 % 0.00 in 0 W/m2
03:19 39.4 °F 37.0 °F 30.25 in WNW 5.0 mph 8.0 mph 91 % 0.00 in 0 W/m2
03:21 39.4 °F 37.0 °F 30.25 in WNW 4.0 mph 6.0 mph 91 % 0.00 in 0 W/m2
03:24 39.2 °F 36.8 °F 30.25 in NW 4.0 mph 6.0 mph 91 % 0.00 in 0 W/m2
03:29 39.0 °F 36.6 °F 30.25 in NW 5.0 mph 9.0 mph 91 % 0.00 in 0 W/m2
03:30 39.0 °F 36.6 °F 30.25 in NW 5.0 mph 9.0 mph 91 % 0.00 in 0 W/m2
03:31 39.0 °F 36.6 °F 30.25 in NW 5.0 mph 9.0 mph 91 % 0.00 in 0 W/m2
03:36 39.0 °F 36.6 °F 30.25 in NW 7.0 mph 12.0 mph 91 % 0.00 in 0 W/m2
03:38 39.0 °F 36.6 °F 30.25 in NW 7.0 mph 12.0 mph 91 % 0.00 in 0 W/m2
03:43 39.0 °F 36.6 °F 30.25 in WNW 7.0 mph 10.0 mph 91 % 0.00 in 0 W/m2
03:45 39.0 °F 36.6 °F 30.26 in WNW 7.0 mph 12.0 mph 91 % 0.00 in 0 W/m2
03:50 39.0 °F 36.6 °F 30.26 in WNW 6.0 mph 9.0 mph 91 % 0.00 in 0 W/m2
03:52 39.0 °F 36.6 °F 30.26 in WNW 6.0 mph 9.0 mph 91 % 0.00 in 0 W/m2
03:57 39.0 °F 36.6 °F 30.26 in NW 4.0 mph 9.0 mph 91 % 0.00 in 0 W/m2
03:59 38.8 °F 36.4 °F 30.26 in NW 5.0 mph 7.0 mph 91 % 0.00 in 0 W/m2
04:04 38.7 °F 36.3 °F 30.26 in NW 5.0 mph 8.0 mph 91 % 0.00 in 0 W/m2
04:08 38.7 °F 36.3 °F 30.26 in NW 5.0 mph 8.0 mph 91 % 0.00 in 0 W/m2
04:10 38.7 °F 36.3 °F 30.26 in NW 6.0 mph 8.0 mph 91 % 0.00 in 0 W/m2
04:15 38.7 °F 36.3 °F 30.26 in WNW 6.0 mph 10.0 mph 91 % 0.00 in 0 W/m2
04:20 38.7 °F 36.3 °F 30.26 in WNW 5.0 mph 9.0 mph 91 % 0.00 in 0 W/m2
04:25 38.7 °F 36.3 °F 30.26 in NW 6.0 mph 9.0 mph 91 % 0.00 in 0 W/m2
04:28 38.5 °F 36.1 °F 30.26 in NW 4.0 mph 6.0 mph 91 % 0.00 in 0 W/m2
04:31 38.5 °F 36.1 °F 30.27 in WNW 5.0 mph 7.0 mph 91 % 0.00 in 0 W/m2
04:35 38.5 °F 36.1 °F 30.27 in WNW 4.0 mph 7.0 mph 91 % 0.00 in 0 W/m2
04:39 38.3 °F 35.9 °F 30.27 in WNW 4.0 mph 6.0 mph 91 % 0.00 in 0 W/m2
04:41 38.3 °F 35.9 °F 30.27 in WNW 3.0 mph 6.0 mph 91 % 0.00 in 0 W/m2
04:46 38.1 °F 35.7 °F 30.27 in WNW 2.0 mph 6.0 mph 91 % 0.00 in 0 W/m2
04:51 37.9 °F 35.3 °F 30.27 in WNW 3.0 mph 5.0 mph 90 % 0.00 in 0 W/m2
04:56 37.8 °F 35.4 °F 30.28 in NW 4.0 mph 6.0 mph 91 % 0.00 in 0 W/m2
05:00 37.8 °F 35.4 °F 30.28 in NW 4.0 mph 7.0 mph 91 % 0.00 in 0 W/m2
05:04 37.8 °F 35.4 °F 30.28 in NW 5.0 mph 7.0 mph 91 % 0.00 in 0 W/m2
05:05 37.8 °F 35.4 °F 30.28 in NW 5.0 mph 7.0 mph 91 % 0.00 in 0 W/m2
05:10 37.8 °F 35.4 °F 30.28 in NW 5.0 mph 7.0 mph 91 % 0.00 in 0 W/m2
05:14 37.8 °F 35.4 °F 30.28 in NW 5.0 mph 8.0 mph 91 % 0.00 in 0 W/m2
05:17 37.9 °F 35.5 °F 30.29 in WNW 3.0 mph 8.0 mph 91 % 0.00 in 0 W/m2
05:19 37.9 °F 35.5 °F 30.29 in NW 3.0 mph 7.0 mph 91 % 0.00 in 0 W/m2
05:23 37.9 °F 35.5 °F 30.29 in NW 4.0 mph 7.0 mph 91 % 0.00 in 0 W/m2
05:29 37.9 °F 35.5 °F 30.29 in NW 5.0 mph 9.0 mph 91 % 0.00 in 0 W/m2
05:30 37.9 °F 35.5 °F 30.29 in NW 5.0 mph 9.0 mph 91 % 0.00 in 0 W/m2
05:35 37.9 °F 35.3 °F 30.29 in NW 4.0 mph 8.0 mph 90 % 0.00 in 0 W/m2
05:36 37.9 °F 35.3 °F 30.29 in NW 4.0 mph 8.0 mph 90 % 0.00 in 0 W/m2
05:40 37.9 °F 35.3 °F 30.29 in NW 3.0 mph 5.0 mph 90 % 0.00 in 0 W/m2
05:42 37.9 °F 35.3 °F 30.29 in WNW 3.0 mph 7.0 mph 90 % 0.00 in 0 W/m2
05:45 37.9 °F 35.3 °F 30.29 in WNW 2.0 mph 5.0 mph 90 % 0.00 in 0 W/m2
05:47 37.9 °F 35.3 °F 30.30 in WNW 1.0 mph 4.0 mph 90 % 0.00 in 0 W/m2
05:51 37.8 °F 35.1 °F 30.30 in WNW 2.0 mph 6.0 mph 90 % 0.00 in 0 W/m2
05:53 37.8 °F 35.1 °F 30.30 in NW 2.0 mph 5.0 mph 90 % 0.00 in 0 W/m2
05:58 37.6 °F 34.9 °F 30.30 in NW 2.0 mph 5.0 mph 90 % 0.00 in 0 W/m2
06:00 37.6 °F 34.9 °F 30.30 in NW 3.0 mph 6.0 mph 90 % 0.00 in 0 W/m2
06:05 37.6 °F 34.9 °F 30.30 in NW 2.0 mph 5.0 mph 90 % 0.00 in 0 W/m2
06:10 37.6 °F 34.9 °F 30.30 in NW 3.0 mph 6.0 mph 90 % 0.00 in 0 W/m2
06:13 37.6 °F 34.9 °F 30.30 in NW 3.0 mph 5.0 mph 90 % 0.00 in 0 W/m2
06:18 37.6 °F 34.9 °F 30.30 in NW 4.0 mph 7.0 mph 90 % 0.00 in 0 W/m2
06:23 37.6 °F 34.9 °F 30.30 in NW 3.0 mph 7.0 mph 90 % 0.00 in 0 W/m2
06:28 37.6 °F 34.6 °F 30.31 in Calm   2.0 mph 89 % 0.00 in 0 W/m2
06:33 37.2 °F 34.3 °F 30.32 in Calm   1.0 mph 89 % 0.00 in 0 W/m2
06:35 37.0 °F 34.1 °F 30.32 in Calm     89 % 0.00 in 0 W/m2
06:40 36.9 °F 33.9 °F 30.32 in WNW 1.0 mph 2.0 mph 89 % 0.00 in 0 W/m2
06:41 36.7 °F 33.7 °F 30.32 in WNW 1.0 mph 2.0 mph 89 % 0.00 in 0 W/m2
06:42 36.7 °F 33.7 °F 30.32 in WNW 1.0 mph 2.0 mph 89 % 0.00 in 0 W/m2
06:47 36.3 °F 33.4 °F 30.32 in Calm   1.0 mph 89 % 0.00 in 0 W/m2
06:48 36.3 °F 33.4 °F 30.32 in Calm   1.0 mph 89 % 0.00 in 0 W/m2
06:53 36.1 °F 33.2 °F 30.32 in Calm     89 % 0.00 in 0 W/m2
06:58 35.8 °F 32.9 °F 30.32 in Calm     89 % 0.00 in 0 W/m2
07:00 35.8 °F 32.9 °F 30.32 in Calm     89 % 0.00 in 0 W/m2
07:05 35.4 °F 32.8 °F 30.33 in Calm     90 % 0.00 in 0 W/m2
07:07 35.4 °F 32.8 °F 30.33 in WNW 1.0 mph 3.0 mph 90 % 0.00 in 0 W/m2
07:09 35.2 °F 32.6 °F 30.33 in NW 2.0 mph 3.0 mph 90 % 0.00 in 0 W/m2
07:13 35.1 °F 32.4 °F 30.33 in Calm   1.0 mph 90 % 0.00 in 0 W/m2
07:18 34.9 °F 32.2 °F 30.33 in Calm   1.0 mph 90 % 0.00 in 0 W/m2
07:23 34.9 °F 32.5 °F 30.34 in NW 3.0 mph 5.0 mph 91 % 0.00 in 0 W/m2
07:26 35.1 °F 33.0 °F 30.34 in NW 3.0 mph 5.0 mph 92 % 0.00 in 0 W/m2
07:29 35.2 °F 33.1 °F 30.34 in NW 2.0 mph 4.0 mph 92 % 0.00 in 0 W/m2
07:34 35.4 °F 33.3 °F 30.35 in WNW 1.0 mph 5.0 mph 92 % 0.00 in 0 W/m2
07:38 35.4 °F 33.3 °F 30.35 in WNW 1.0 mph 2.0 mph 92 % 0.00 in 0 W/m2
07:43 35.2 °F 32.9 °F 30.35 in Calm   2.0 mph 91 % 0.00 in 0 W/m2
07:48 34.9 °F 32.5 °F 30.35 in Calm   2.0 mph 91 % 0.00 in 0 W/m2
07:50 34.9 °F 32.5 °F 30.35 in WNW 1.0 mph 3.0 mph 91 % 0.00 in 0 W/m2
07:55 34.5 °F 32.2 °F 30.35 in Calm     91 % 0.00 in 0 W/m2
07:58 34.5 °F 32.2 °F 30.35 in Calm     91 % 0.00 in 0 W/m2
08:01 34.3 °F 32.0 °F 30.35 in Calm     91 % 0.00 in 0 W/m2
08:06 34.0 °F 31.6 °F 30.35 in Calm     91 % 0.00 in 0 W/m2
08:08 34.0 °F 31.6 °F 30.35 in Calm     91 % 0.00 in 0 W/m2
08:09 34.0 °F 31.6 °F 30.35 in Calm     91 % 0.00 in 0 W/m2
08:14 33.8 °F 31.7 °F 30.35 in WNW 2.0 mph 3.0 mph 92 % 0.00 in 0 W/m2
08:16 33.8 °F 31.7 °F 30.35 in WNW 1.0 mph 2.0 mph 92 % 0.00 in 5 W/m2
08:21 33.8 °F 31.7 °F 30.35 in Calm     92 % 0.00 in 7 W/m2
08:22 33.8 °F 31.7 °F 30.36 in Calm     92 % 0.00 in 7 W/m2
08:27 33.6 °F 31.5 °F 30.36 in Calm     92 % 0.00 in 9 W/m2
08:29 33.4 °F 31.4 °F 30.36 in Calm     92 % 0.00 in 9 W/m2
08:34 33.4 °F 31.4 °F 30.36 in Calm   1.0 mph 92 % 0.00 in 12 W/m2
08:39 33.3 °F 31.2 °F 30.36 in Calm     92 % 0.00 in 14 W/m2
08:44 33.1 °F 31.0 °F 30.36 in Calm     92 % 0.00 in 16 W/m2
08:48 33.1 °F 31.0 °F 30.36 in Calm     92 % 0.00 in 19 W/m2
08:50 33.1 °F 31.0 °F 30.36 in Calm     92 % 0.00 in 21 W/m2
08:55 32.9 °F 30.8 °F 30.37 in Calm     92 % 0.00 in 23 W/m2
08:57 32.9 °F 31.1 °F 30.37 in Calm     93 % 0.00 in 25 W/m2
09:02 32.7 °F 30.9 °F 30.37 in Calm     93 % 0.00 in 26 W/m2
09:03 32.7 °F 30.9 °F 30.37 in Calm     93 % 0.00 in 26 W/m2
09:10 32.7 °F 30.9 °F 30.38 in Calm     93 % 0.00 in 30 W/m2
09:15 32.9 °F 31.1 °F 30.38 in Calm     93 % 0.00 in 32 W/m2
09:17 32.9 °F 31.1 °F 30.38 in Calm     93 % 0.00 in 32 W/m2
09:18 33.1 °F 31.3 °F 30.38 in Calm     93 % 0.00 in 32 W/m2
09:23 33.1 °F 31.3 °F 30.38 in Calm     93 % 0.00 in 47 W/m2
09:24 33.1 °F 31.3 °F 30.38 in Calm     93 % 0.00 in 58 W/m2
09:29 33.3 °F 31.7 °F 30.38 in Calm     94 % 0.00 in 84 W/m2
09:31 33.3 °F 31.7 °F 30.38 in Calm     94 % 0.00 in 81 W/m2
09:36 33.4 °F 31.9 °F 30.39 in Calm     94 % 0.00 in 113 W/m2
09:37 33.6 °F 32.1 °F 30.38 in Calm     94 % 0.00 in 118 W/m2
09:42 34.0 °F 32.7 °F 30.38 in Calm     95 % 0.00 in 125 W/m2
09:46 34.3 °F 33.1 °F 30.39 in Calm     95 % 0.00 in 130 W/m2
09:51 34.9 °F 33.6 °F 30.39 in Calm     95 % 0.00 in 135 W/m2
09:57 35.8 °F 34.5 °F 30.38 in Calm     95 % 0.00 in 144 W/m2
09:58 36.1 °F 35.1 °F 30.39 in Calm     96 % 0.00 in 146 W/m2
10:00 36.5 °F 35.5 °F 30.39 in Calm     96 % 0.00 in 149 W/m2
10:05 37.6 °F 36.5 °F 30.39 in Calm     96 % 0.00 in 155 W/m2
10:06 37.8 °F 36.7 °F 30.40 in Calm     96 % 0.00 in 156 W/m2
10:11 38.5 °F 37.2 °F 30.40 in Calm   2.0 mph 95 % 0.00 in 163 W/m2
10:15 38.8 °F 37.3 °F 30.40 in WNW 1.0 mph 2.0 mph 94 % 0.00 in 158 W/m2
10:20 39.4 °F 37.8 °F 30.40 in Calm     94 % 0.00 in 162 W/m2
10:22 39.6 °F 37.7 °F 30.40 in Calm     93 % 0.00 in 158 W/m2
10:26 39.9 °F 38.1 °F 30.40 in Calm     93 % 0.00 in 167 W/m2
10:31 40.5 °F 38.0 °F 30.40 in Calm     91 % 0.00 in 183 W/m2
10:33 40.6 °F 38.2 °F 30.40 in Calm   1.0 mph 91 % 0.00 in 188 W/m2
10:38 40.8 °F 38.1 °F 30.40 in Calm   1.0 mph 90 % 0.00 in 190 W/m2
10:41 41.2 °F 38.5 °F 30.40 in Calm   1.0 mph 90 % 0.00 in 169 W/m2
10:44 41.4 °F 38.4 °F 30.40 in Calm     89 % 0.00 in 160 W/m2
10:47 41.7 °F 38.7 °F 30.41 in Calm   2.0 mph 89 % 0.00 in 186 W/m2
10:49 42.1 °F 38.8 °F 30.41 in Calm   2.0 mph 88 % 0.00 in 171 W/m2
10:54 42.4 °F 38.8 °F 30.41 in Calm     87 % 0.00 in 199 W/m2
10:55 42.4 °F 38.8 °F 30.41 in Calm     87 % 0.00 in 199 W/m2
10:58 42.8 °F 38.9 °F 30.41 in Calm     86 % 0.00 in 197 W/m2
11:02 43.2 °F 39.0 °F 30.41 in Calm     85 % 0.00 in 200 W/m2
11:07 43.5 °F 39.3 °F 30.41 in Calm     85 % 0.00 in 209 W/m2
11:08 43.5 °F 39.0 °F 30.41 in Calm     84 % 0.00 in 209 W/m2
11:11 43.7 °F 39.2 °F 30.41 in Calm     84 % 0.00 in 209 W/m2
11:14 43.9 °F 39.4 °F 30.41 in Calm   2.0 mph 84 % 0.00 in 216 W/m2
11:19 44.2 °F 39.7 °F 30.41 in Calm   2.0 mph 84 % 0.00 in 216 W/m2
11:20 44.4 °F 39.9 °F 30.41 in WNW 1.0 mph 5.0 mph 84 % 0.00 in 218 W/m2
11:25 45.0 °F 39.8 °F 30.42 in WNW 4.0 mph 5.0 mph 82 % 0.00 in 221 W/m2
11:28 45.1 °F 39.7 °F 30.42 in WNW 1.0 mph 2.0 mph 81 % 0.00 in 218 W/m2
11:31 45.3 °F 39.8 °F 30.42 in Calm   1.0 mph 81 % 0.00 in 225 W/m2
11:36 45.9 °F 40.4 °F 30.41 in WNW 1.0 mph 4.0 mph 81 % 0.00 in 230 W/m2
11:37 45.9 °F 40.4 °F 30.42 in WNW 1.0 mph 2.0 mph 81 % 0.00 in 229 W/m2
11:40 46.0 °F 40.2 °F 30.42 in Calm   2.0 mph 80 % 0.00 in 232 W/m2
11:43 46.2 °F 40.4 °F 30.42 in Calm   4.0 mph 80 % 0.00 in 234 W/m2
11:48 46.6 °F 40.4 °F 30.42 in WNW 1.0 mph 3.0 mph 79 % 0.00 in 232 W/m2
11:49 46.6 °F 40.4 °F 30.42 in WNW 3.0 mph 5.0 mph 79 % 0.00 in 239 W/m2
11:54 46.8 °F 39.9 °F 30.42 in WNW 2.0 mph 4.0 mph 77 % 0.00 in 237 W/m2
11:59 46.9 °F 40.1 °F 30.42 in WNW 1.0 mph 4.0 mph 77 % 0.00 in 248 W/m2
12:00 46.9 °F 40.1 °F 30.42 in West 2.0 mph 6.0 mph 77 % 0.00 in 248 W/m2
12:05 47.3 °F 40.1 °F 30.42 in West 3.0 mph 5.0 mph 76 % 0.00 in 250 W/m2
12:10 47.5 °F 39.9 °F 30.41 in West 3.0 mph 5.0 mph 75 % 0.00 in 258 W/m2
12:11 47.5 °F 39.9 °F 30.41 in West 3.0 mph 5.0 mph 75 % 0.00 in 260 W/m2
12:16 47.7 °F 40.5 °F 30.41 in WNW 4.0 mph 6.0 mph 76 % 0.00 in 264 W/m2
12:17 47.8 °F 40.3 °F 30.41 in WNW 3.0 mph 5.0 mph 75 % 0.00 in 262 W/m2
12:22 48.0 °F 40.5 °F 30.41 in West 1.0 mph 5.0 mph 75 % 0.00 in 267 W/m2
12:24 48.0 °F 40.5 °F 30.41 in West 1.0 mph 5.0 mph 75 % 0.00 in 271 W/m2
12:28 48.4 °F 40.5 °F 30.41 in West 3.0 mph 5.0 mph 74 % 0.00 in 239 W/m2
12:33 48.6 °F 40.6 °F 30.41 in WNW 1.0 mph 3.0 mph 74 % 0.00 in 248 W/m2
12:35 48.6 °F 40.3 °F 30.41 in West 2.0 mph 5.0 mph 73 % 0.00 in 243 W/m2
12:40 48.6 °F 40.3 °F 30.41 in West 4.0 mph 6.0 mph 73 % 0.00 in 265 W/m2
12:45 48.6 °F 40.3 °F 30.41 in West 1.0 mph 5.0 mph 73 % 0.00 in 239 W/m2
12:48 48.7 °F 40.1 °F 30.41 in West 2.0 mph 4.0 mph 72 % 0.00 in 202 W/m2
12:53 48.6 °F 39.9 °F 30.41 in West 2.0 mph 5.0 mph 72 % 0.00 in 165 W/m2
12:56 48.6 °F 39.9 °F 30.41 in West 2.0 mph 4.0 mph 72 % 0.00 in 167 W/m2
12:59 48.4 °F 39.8 °F 30.41 in West 2.0 mph 4.0 mph 72 % 0.00 in 174 W/m2
13:01 48.4 °F 39.8 °F 30.41 in West 2.0 mph 5.0 mph 72 % 0.00 in 211 W/m2
13:06 48.2 °F 39.6 °F 30.41 in WSW 3.0 mph 5.0 mph 72 % 0.00 in 192 W/m2
13:07 48.2 °F 39.6 °F 30.41 in WSW 3.0 mph 5.0 mph 72 % 0.00 in 199 W/m2
13:10 48.2 °F 39.6 °F 30.41 in WSW 2.0 mph 4.0 mph 72 % 0.00 in 183 W/m2
13:15 48.0 °F 39.8 °F 30.42 in WSW 1.0 mph 3.0 mph 73 % 0.00 in 213 W/m2
13:17 48.2 °F 39.9 °F 30.42 in WSW 1.0 mph 5.0 mph 73 % 0.00 in 195 W/m2
13:22 48.4 °F 40.1 °F 30.42 in West 4.0 mph 7.0 mph 73 % 0.00 in 197 W/m2
13:25 48.4 °F 39.8 °F 30.42 in West 4.0 mph 7.0 mph 72 % 0.00 in 183 W/m2
13:30 48.4 °F 39.8 °F 30.41 in West 4.0 mph 6.0 mph 72 % 0.00 in 183 W/m2
13:32 48.6 °F 39.9 °F 30.41 in West 2.0 mph 6.0 mph 72 % 0.00 in 171 W/m2
13:37 48.6 °F 39.9 °F 30.41 in West 3.0 mph 5.0 mph 72 % 0.00 in 162 W/m2
13:42 48.6 °F 39.9 °F 30.41 in Calm   1.0 mph 72 % 0.00 in 144 W/m2
13:45 48.6 °F 39.9 °F 30.41 in West 1.0 mph 4.0 mph 72 % 0.00 in 137 W/m2
13:47 48.7 °F 40.1 °F 30.41 in West 1.0 mph 4.0 mph 72 % 0.00 in 135 W/m2
13:52 48.6 °F 39.9 °F 30.41 in WSW 3.0 mph 6.0 mph 72 % 0.00 in 118 W/m2
13:53 48.4 °F 39.8 °F 30.41 in WSW 3.0 mph 6.0 mph 72 % 0.00 in 118 W/m2
13:58 48.2 °F 39.6 °F 30.41 in WSW 1.0 mph 2.0 mph 72 % 0.00 in 95 W/m2
13:59 48.2 °F 39.6 °F 30.41 in Calm   2.0 mph 72 % 0.00 in 88 W/m2
14:04 48.0 °F 39.8 °F 30.41 in WSW 1.0 mph 3.0 mph 73 % 0.00 in 105 W/m2
14:05 48.0 °F 39.4 °F 30.41 in WSW 1.0 mph 3.0 mph 72 % 0.00 in 109 W/m2
14:10 47.8 °F 39.6 °F 30.41 in WSW 1.0 mph 2.0 mph 73 % 0.00 in 90 W/m2
14:12 47.8 °F 39.6 °F 30.41 in WSW 1.0 mph 4.0 mph 73 % 0.00 in 91 W/m2
14:17 47.8 °F 40.0 °F 30.41 in WSW 1.0 mph 3.0 mph 74 % 0.00 in 86 W/m2
14:18 47.8 °F 40.0 °F 30.41 in WSW 1.0 mph 3.0 mph 74 % 0.00 in 86 W/m2
14:21 47.7 °F 39.8 °F 30.41 in WSW 1.0 mph 4.0 mph 74 % 0.00 in 97 W/m2
14:24 47.7 °F 39.8 °F 30.41 in WSW 2.0 mph 4.0 mph 74 % 0.00 in 97 W/m2
14:29 47.7 °F 40.1 °F 30.41 in Calm   2.0 mph 75 % 0.00 in 83 W/m2
14:32 47.7 °F 40.1 °F 30.41 in WSW 1.0 mph 4.0 mph 75 % 0.00 in 74 W/m2
14:33 47.7 °F 40.1 °F 30.41 in WSW 1.0 mph 4.0 mph 75 % 0.00 in 67 W/m2
14:38 47.5 °F 39.9 °F 30.41 in Calm   1.0 mph 75 % 0.00 in 77 W/m2
14:43 47.5 °F 39.9 °F 30.41 in Calm   1.0 mph 75 % 0.00 in 65 W/m2
14:45 47.5 °F 39.9 °F 30.41 in Calm     75 % 0.00 in 63 W/m2
14:50 47.1 °F 39.6 °F 30.41 in Calm     75 % 0.00 in 53 W/m2
14:51 47.1 °F 39.6 °F 30.41 in Calm     75 % 0.00 in 51 W/m2
14:52 47.1 °F 39.6 °F 30.41 in Calm     75 % 0.00 in 49 W/m2
14:56 46.9 °F 39.8 °F 30.42 in Calm     76 % 0.00 in 35 W/m2
15:01 46.6 °F 39.4 °F 30.42 in Calm   1.0 mph 76 % 0.00 in 28 W/m2
15:02 46.6 °F 39.4 °F 30.42 in Calm   1.0 mph 76 % 0.00 in 28 W/m2
15:07 46.2 °F 39.4 °F 30.42 in Calm     77 % 0.00 in 23 W/m2
15:11 46.0 °F 39.2 °F 30.42 in Calm   2.0 mph 77 % 0.00 in 21 W/m2
15:14 45.9 °F 39.4 °F 30.42 in Calm     78 % 0.00 in 21 W/m2
15:19 45.5 °F 39.0 °F 30.42 in Calm   2.0 mph 78 % 0.00 in 21 W/m2
15:21 45.3 °F 38.9 °F 30.42 in WSW 1.0 mph 3.0 mph 78 % 0.00 in 19 W/m2
15:26 45.1 °F 39.0 °F 30.42 in West 2.0 mph 5.0 mph 79 % 0.00 in 16 W/m2
15:27 45.0 °F 38.8 °F 30.42 in West 3.0 mph 5.0 mph 79 % 0.00 in 16 W/m2
15:29 44.8 °F 38.7 °F 30.42 in WNW 3.0 mph 6.0 mph 79 % 0.00 in 14 W/m2
15:34 44.4 °F 38.6 °F 30.42 in WNW 4.0 mph 6.0 mph 80 % 0.00 in 11 W/m2
15:36 44.2 °F 38.5 °F 30.42 in WNW 4.0 mph 6.0 mph 80 % 0.00 in 11 W/m2
15:41 43.9 °F 38.1 °F 30.42 in NW 3.0 mph 5.0 mph 80 % 0.00 in 7 W/m2
15:43 43.7 °F 38.3 °F 30.42 in NW 2.0 mph 4.0 mph 81 % 0.00 in 5 W/m2
15:46 43.5 °F 38.1 °F 30.42 in NW 2.0 mph 4.0 mph 81 % 0.00 in 5 W/m2
15:51 43.2 °F 37.7 °F 30.42 in NW 1.0 mph 4.0 mph 81 % 0.00 in 0 W/m2
15:53 43.2 °F 38.0 °F 30.42 in NW 2.0 mph 4.0 mph 82 % 0.00 in 0 W/m2
15:57 42.8 °F 37.7 °F 30.42 in NW 1.0 mph 3.0 mph 82 % 0.00 in 0 W/m2
15:58 42.6 °F 37.5 °F 30.42 in NW 1.0 mph 3.0 mph 82 % 0.00 in 0 W/m2
16:03 42.4 °F 37.6 °F 30.42 in WNW 4.0 mph 5.0 mph 83 % 0.00 in 0 W/m2
16:04 42.3 °F 37.5 °F 30.42 in WNW 3.0 mph 5.0 mph 83 % 0.00 in 0 W/m2
16:09 41.9 °F 37.1 °F 30.42 in WNW 2.0 mph 3.0 mph 83 % 0.00 in 0 W/m2
16:12 41.7 °F 37.2 °F 30.43 in WNW 2.0 mph 4.0 mph 84 % 0.00 in 0 W/m2
16:17 41.5 °F 37.4 °F 30.43 in WNW 2.0 mph 5.0 mph 85 % 0.00 in 0 W/m2
16:19 41.4 °F 37.2 °F 30.43 in WNW 2.0 mph 5.0 mph 85 % 0.00 in 0 W/m2
16:24 41.2 °F 37.3 °F 30.43 in WNW 5.0 mph 6.0 mph 86 % 0.00 in 0 W/m2
16:28 41.0 °F 37.1 °F 30.43 in WNW 3.0 mph 6.0 mph 86 % 0.00 in 0 W/m2
16:29 40.8 °F 37.0 °F 30.43 in West 4.0 mph 7.0 mph 86 % 0.00 in 0 W/m2
16:34 40.6 °F 37.1 °F 30.43 in West 3.0 mph 5.0 mph 87 % 0.00 in 0 W/m2
16:35 40.6 °F 37.1 °F 30.43 in West 2.0 mph 5.0 mph 87 % 0.00 in 0 W/m2
16:36 40.6 °F 37.1 °F 30.43 in West 2.0 mph 5.0 mph 87 % 0.00 in 0 W/m2
16:41 40.3 °F 36.7 °F 30.44 in West 2.0 mph 5.0 mph 87 % 0.00 in 0 W/m2
16:45 40.1 °F 36.5 °F 30.44 in West 2.0 mph 4.0 mph 87 % 0.00 in 0 W/m2
16:46 40.1 °F 36.5 °F 30.44 in West 2.0 mph 4.0 mph 87 % 0.00 in 0 W/m2
16:50 39.9 °F 36.7 °F 30.44 in West 3.0 mph 5.0 mph 88 % 0.00 in 0 W/m2
16:55 39.7 °F 36.5 °F 30.44 in West 4.0 mph 8.0 mph 88 % 0.00 in 0 W/m2
16:58 39.6 °F 36.3 °F 30.45 in WNW 3.0 mph 5.0 mph 88 % 0.00 in 0 W/m2
17:03 39.6 °F 36.6 °F 30.45 in West 3.0 mph 7.0 mph 89 % 0.00 in 0 W/m2
17:04 39.6 °F 36.6 °F 30.45 in West 4.0 mph 7.0 mph 89 % 0.00 in 0 W/m2
17:06 39.6 °F 36.6 °F 30.45 in WSW 3.0 mph 5.0 mph 89 % 0.00 in 0 W/m2
17:11 39.6 °F 36.9 °F 30.45 in WSW 4.0 mph 6.0 mph 90 % 0.00 in 0 W/m2
17:12 39.6 °F 36.9 °F 30.45 in WSW 4.0 mph 7.0 mph 90 % 0.00 in 0 W/m2
17:17 39.6 °F 37.2 °F 30.45 in WSW 3.0 mph 6.0 mph 91 % 0.00 in 0 W/m2
17:18 39.7 °F 37.3 °F 30.45 in WSW 3.0 mph 6.0 mph 91 % 0.00 in 0 W/m2
17:23 39.7 °F 37.3 °F 30.45 in WSW 2.0 mph 4.0 mph 91 % 0.00 in 0 W/m2
17:25 39.7 °F 37.3 °F 30.45 in WSW 1.0 mph 4.0 mph 91 % 0.00 in 0 W/m2
17:29 39.7 °F 37.3 °F 30.45 in Calm   2.0 mph 91 % 0.00 in 0 W/m2
17:34 39.7 °F 37.3 °F 30.45 in WSW 2.0 mph 4.0 mph 91 % 0.00 in 0 W/m2
17:38 39.7 °F 37.3 °F 30.45 in WSW 2.0 mph 4.0 mph 91 % 0.00 in 0 W/m2
17:43 39.7 °F 37.6 °F 30.44 in WNW 2.0 mph 6.0 mph 92 % 0.00 in 0 W/m2
17:44 39.7 °F 37.6 °F 30.44 in NW 2.0 mph 4.0 mph 92 % 0.00 in 0 W/m2
17:49 39.7 °F 37.6 °F 30.45 in NW 2.0 mph 4.0 mph 92 % 0.00 in 0 W/m2
17:50 39.7 °F 37.6 °F 30.44 in NW 2.0 mph 4.0 mph 92 % 0.00 in 0 W/m2
17:55 39.6 °F 37.4 °F 30.44 in NW 2.0 mph 5.0 mph 92 % 0.00 in 0 W/m2
17:57 39.6 °F 37.4 °F 30.44 in WNW 4.0 mph 6.0 mph 92 % 0.00 in 0 W/m2
18:00 39.6 °F 37.4 °F 30.44 in WNW 3.0 mph 5.0 mph 92 % 0.00 in 0 W/m2
18:02 39.6 °F 37.4 °F 30.44 in WNW 3.0 mph 4.0 mph 92 % 0.00 in 0 W/m2
18:07 39.4 °F 37.2 °F 30.44 in WNW 4.0 mph 6.0 mph 92 % 0.00 in 0 W/m2
18:10 39.4 °F 37.2 °F 30.44 in WNW 4.0 mph 6.0 mph 92 % 0.00 in 0 W/m2
18:15 39.4 °F 37.5 °F 30.44 in West 4.0 mph 6.0 mph 93 % 0.00 in 0 W/m2
18:20 39.6 °F 37.7 °F 30.44 in WNW 1.0 mph 4.0 mph 93 % 0.00 in 0 W/m2
18:21 39.6 °F 37.7 °F 30.44 in WNW 1.0 mph 4.0 mph 93 % 0.00 in 0 W/m2
18:26 39.6 °F 37.7 °F 30.44 in WNW 2.0 mph 5.0 mph 93 % 0.00 in 0 W/m2
18:28 39.6 °F 37.7 °F 30.44 in WNW 1.0 mph 4.0 mph 93 % 0.00 in 0 W/m2
18:33 39.6 °F 37.7 °F 30.44 in Calm   2.0 mph 93 % 0.00 in 0 W/m2
18:35 39.4 °F 37.5 °F 30.44 in WNW 1.0 mph 2.0 mph 93 % 0.00 in 0 W/m2
18:41 39.4 °F 37.5 °F 30.44 in Calm   1.0 mph 93 % 0.00 in 0 W/m2
18:43 39.2 °F 37.3 °F 30.44 in Calm   2.0 mph 93 % 0.00 in 0 W/m2
18:47 39.0 °F 36.9 °F 30.44 in Calm     92 % 0.00 in 0 W/m2
18:48 39.0 °F 36.9 °F 30.44 in Calm     92 % 0.00 in 0 W/m2
18:53 38.7 °F 36.5 °F 30.44 in Calm     92 % 0.00 in 0 W/m2
18:54 38.7 °F 36.5 °F 30.44 in Calm     92 % 0.00 in 0 W/m2
18:59 38.5 °F 36.4 °F 30.44 in Calm     92 % 0.00 in 0 W/m2
19:02 38.3 °F 36.2 °F 30.44 in Calm     92 % 0.00 in 0 W/m2
19:07 38.3 °F 36.5 °F 30.45 in Calm     93 % 0.00 in 0 W/m2
19:12 38.1 °F 36.3 °F 30.45 in Calm     93 % 0.00 in 0 W/m2
19:14 37.9 °F 36.1 °F 30.45 in Calm     93 % 0.00 in 0 W/m2
19:19 37.9 °F 36.1 °F 30.46 in Calm     93 % 0.00 in 0 W/m2
19:22 37.9 °F 36.1 °F 30.46 in Calm     93 % 0.00 in 0 W/m2
19:28 37.8 °F 35.9 °F 30.45 in Calm     93 % 0.00 in 0 W/m2
19:33 37.6 °F 35.7 °F 30.45 in Calm     93 % 0.00 in 0 W/m2
19:35 37.6 °F 36.0 °F 30.45 in Calm     94 % 0.00 in 0 W/m2
19:40 37.8 °F 36.2 °F 30.45 in Calm     94 % 0.00 in 0 W/m2
19:44 37.6 °F 36.0 °F 30.45 in Calm     94 % 0.00 in 0 W/m2
19:46 37.6 °F 36.0 °F 30.46 in Calm     94 % 0.00 in 0 W/m2
19:51 37.4 °F 35.8 °F 30.46 in Calm     94 % 0.00 in 0 W/m2
19:55 37.2 °F 35.7 °F 30.45 in Calm     94 % 0.00 in 0 W/m2
20:00 37.2 °F 35.7 °F 30.45 in Calm   2.0 mph 94 % 0.00 in 0 W/m2
20:02 37.2 °F 35.7 °F 30.45 in WNW 1.0 mph 3.0 mph 94 % 0.00 in 0 W/m2
20:07 37.2 °F 35.7 °F 30.45 in WNW 2.0 mph 5.0 mph 94 % 0.00 in 0 W/m2
20:08 37.2 °F 35.7 °F 30.45 in WNW 3.0 mph 5.0 mph 94 % 0.00 in 0 W/m2
20:13 37.2 °F 35.7 °F 30.45 in WNW 2.0 mph 4.0 mph 94 % 0.00 in 0 W/m2
20:18 37.4 °F 35.8 °F 30.45 in WNW 2.0 mph 4.0 mph 94 % 0.00 in 0 W/m2
20:20 37.4 °F 35.8 °F 30.45 in WNW 1.0 mph 4.0 mph 94 % 0.00 in 0 W/m2
20:25 37.2 °F 35.7 °F 30.45 in Calm   2.0 mph 94 % 0.00 in 0 W/m2
20:29 37.2 °F 35.7 °F 30.46 in Calm     94 % 0.00 in 0 W/m2
20:34 37.2 °F 35.9 °F 30.46 in Calm     95 % 0.00 in 0 W/m2
20:39 37.2 °F 35.7 °F 30.46 in Calm   2.0 mph 94 % 0.00 in 0 W/m2
20:40 37.2 °F 35.7 °F 30.46 in Calm   2.0 mph 94 % 0.00 in 0 W/m2
20:45 37.4 °F 36.1 °F 30.45 in WNW 1.0 mph 2.0 mph 95 % 0.00 in 0 W/m2
20:50 37.4 °F 36.1 °F 30.46 in Calm     95 % 0.00 in 0 W/m2
20:54 37.4 °F 36.1 °F 30.45 in Calm     95 % 0.00 in 0 W/m2
20:58 37.2 °F 35.9 °F 30.46 in Calm     95 % 0.00 in 0 W/m2
21:03 37.0 °F 35.5 °F 30.45 in Calm     94 % 0.00 in 0 W/m2
21:04 37.0 °F 35.5 °F 30.45 in Calm     94 % 0.00 in 0 W/m2
21:09 37.0 °F 35.5 °F 30.45 in Calm     94 % 0.00 in 0 W/m2
21:11 37.0 °F 35.7 °F 30.45 in WNW 1.0 mph 2.0 mph 95 % 0.00 in 0 W/m2
21:12 37.0 °F 35.7 °F 30.45 in WNW 1.0 mph 2.0 mph 95 % 0.00 in 0 W/m2
21:17 37.2 °F 35.9 °F 30.45 in WNW 1.0 mph 2.0 mph 95 % 0.00 in 0 W/m2
21:18 37.2 °F 35.9 °F 30.45 in WNW 1.0 mph 2.0 mph 95 % 0.00 in 0 W/m2
21:19 37.2 °F 35.9 °F 30.45 in WNW 2.0 mph 2.0 mph 95 % 0.00 in 0 W/m2
21:24 37.4 °F 36.1 °F 30.45 in Calm   1.0 mph 95 % 0.00 in 0 W/m2
21:27 37.6 °F 36.3 °F 30.45 in WNW 1.0 mph 3.0 mph 95 % 0.00 in 0 W/m2
21:30 37.6 °F 36.3 °F 30.45 in WNW 2.0 mph 4.0 mph 95 % 0.00 in 0 W/m2
21:35 37.6 °F 36.3 °F 30.45 in WNW 1.0 mph 2.0 mph 95 % 0.00 in 0 W/m2
21:36 37.6 °F 36.3 °F 30.45 in Calm   1.0 mph 95 % 0.00 in 0 W/m2
21:42 37.4 °F 36.1 °F 30.45 in Calm     95 % 0.00 in 0 W/m2
21:43 37.2 °F 35.9 °F 30.45 in Calm     95 % 0.00 in 0 W/m2
21:44 37.2 °F 35.9 °F 30.45 in Calm     95 % 0.00 in 0 W/m2
21:49 37.2 °F 35.9 °F 30.45 in NNE 1.0 mph 2.0 mph 95 % 0.00 in 0 W/m2
21:54 37.2 °F 35.9 °F 30.45 in Calm     95 % 0.00 in 0 W/m2
21:56 37.2 °F 35.9 °F 30.45 in Calm     95 % 0.00 in 0 W/m2
21:58 37.2 °F 35.9 °F 30.45 in NW 1.0 mph 3.0 mph 95 % 0.00 in 0 W/m2
22:02 37.2 °F 35.9 °F 30.45 in West 3.0 mph 5.0 mph 95 % 0.00 in 0 W/m2
22:05 37.2 °F 35.9 °F 30.45 in WSW 2.0 mph 4.0 mph 95 % 0.00 in 0 W/m2
22:10 37.4 °F 36.4 °F 30.45 in Calm   2.0 mph 96 % 0.00 in 0 W/m2
22:12 37.6 °F 36.5 °F 30.45 in Calm   1.0 mph 96 % 0.00 in 0 W/m2
22:17 37.8 °F 36.7 °F 30.45 in Calm     96 % 0.00 in 0 W/m2
22:19 37.6 °F 36.3 °F 30.45 in Calm   1.0 mph 95 % 0.00 in 0 W/m2
22:24 37.6 °F 36.3 °F 30.45 in Calm     95 % 0.00 in 0 W/m2
22:29 37.6 °F 36.3 °F 30.45 in WSW 2.0 mph 4.0 mph 95 % 0.00 in 0 W/m2
22:32 37.6 °F 36.3 °F 30.45 in WSW 2.0 mph 4.0 mph 95 % 0.00 in 0 W/m2
22:33 37.6 °F 36.3 °F 30.45 in WSW 2.0 mph 4.0 mph 95 % 0.00 in 0 W/m2
22:39 37.6 °F 36.5 °F 30.45 in WNW 3.0 mph 5.0 mph 96 % 0.00 in 0 W/m2
22:40 37.8 °F 36.7 °F 30.45 in WNW 3.0 mph 5.0 mph 96 % 0.00 in 0 W/m2
22:44 37.9 °F 36.9 °F 30.45 in West 1.0 mph 4.0 mph 96 % 0.00 in 0 W/m2
22:45 37.9 °F 36.9 °F 30.45 in West 1.0 mph 4.0 mph 96 % 0.00 in 0 W/m2
22:50 38.3 °F 37.3 °F 30.46 in West 2.0 mph 5.0 mph 96 % 0.00 in 0 W/m2
22:51 38.3 °F 37.3 °F 30.45 in West 2.0 mph 4.0 mph 96 % 0.00 in 0 W/m2
22:56 38.5 °F 37.4 °F 30.45 in West 2.0 mph 5.0 mph 96 % 0.00 in 0 W/m2
22:59 38.7 °F 37.6 °F 30.45 in West 1.0 mph 4.0 mph 96 % 0.00 in 0 W/m2
23:04 38.8 °F 37.8 °F 30.45 in WNW 3.0 mph 6.0 mph 96 % 0.00 in 0 W/m2
23:09 39.2 °F 38.2 °F 30.45 in West 4.0 mph 6.0 mph 96 % 0.00 in 0 W/m2
23:14 39.4 °F 38.3 °F 30.45 in West 3.0 mph 5.0 mph 96 % 0.00 in 0 W/m2
23:19 39.4 °F 38.3 °F 30.46 in Calm   2.0 mph 96 % 0.00 in 0 W/m2
23:20 39.4 °F 38.3 °F 30.46 in Calm   1.0 mph 96 % 0.00 in 0 W/m2
23:25 39.2 °F 38.2 °F 30.46 in Calm   1.0 mph 96 % 0.00 in 0 W/m2
23:26 39.2 °F 38.2 °F 30.46 in Calm   1.0 mph 96 % 0.00 in 0 W/m2
23:27 39.0 °F 38.0 °F 30.46 in Calm   1.0 mph 96 % 0.00 in 0 W/m2
23:32 39.0 °F 38.0 °F 30.46 in West 1.0 mph 3.0 mph 96 % 0.00 in 0 W/m2
23:35 38.8 °F 37.8 °F 30.46 in West 1.0 mph 2.0 mph 96 % 0.00 in 0 W/m2
23:38 39.0 °F 38.0 °F 30.46 in Calm   2.0 mph 96 % 0.00 in 0 W/m2
23:43 38.8 °F 37.8 °F 30.46 in Calm   3.0 mph 96 % 0.00 in 0 W/m2
23:44 38.8 °F 37.5 °F 30.46 in West 1.0 mph 3.0 mph 95 % 0.00 in 0 W/m2
23:49 38.7 °F 37.4 °F 30.46 in Calm     95 % 0.00 in 0 W/m2
23:50 38.7 °F 37.4 °F 30.46 in Calm     95 % 0.00 in 0 W/m2
23:55 38.7 °F 37.4 °F 30.46 in NE 2.0 mph 3.0 mph 95 % 0.00 in 0 W/m2
23:56 38.7 °F 37.4 °F 30.46 in NE 1.0 mph 3.0 mph 95 % 0.00 in 0 W/m2
23:57 38.7 °F 37.6 °F 30.46 in NE 1.0 mph 3.0 mph 96 % 0.00 in 0 W/m2
Delerius-Weather
Compliments of Weather Underground - 3 mb

Data updates at regular intervals.